Time;durP1;ratioP1;P1;durP2;ratioP2;P2;SDS_P1;SDS_P2;PMS_P1;PMS_P2;Temp;Humidity;BMP_temperature;BMP_pressure;BME280_temperature;BME280_humidity;BME280_pressure;Samples;Min_cycle;Max_cycle;Signal;HPM_P1;HPM_P2
2023/02/04 00:00:00;;;;;;;10.75;2.10;;;7.50;99.90;;;;;;4951664;28;20202;-71
2023/02/04 00:02:27;;;;;;;11.27;2.78;;;7.50;99.90;;;;;;4947524;28;20210;-71
2023/02/04 00:04:53;;;;;;;10.38;2.42;;;7.40;99.90;;;;;;4951607;28;20234;-73
2023/02/04 00:07:24;;;;;;;6.50;1.83;;;7.30;99.90;;;;;;4955231;28;20201;-73
2023/02/04 00:09:51;;;;;;;8.65;2.22;;;7.20;99.90;;;;;;4951090;28;20684;-72
2023/02/04 00:12:18;;;;;;;7.22;2.35;;;7.20;99.90;;;;;;4950148;28;20221;-74
2023/02/04 00:14:45;;;;;;;5.80;1.73;;;7.10;99.90;;;;;;4947448;28;20706;-72
2023/02/04 00:17:12;;;;;;;7.53;2.30;;;7.00;99.90;;;;;;4962697;28;20678;-73
2023/02/04 00:19:39;;;;;;;14.73;1.90;;;6.90;99.90;;;;;;4950589;29;20645;-71
2023/02/04 00:22:07;;;;;;;8.20;2.10;;;6.80;99.90;;;;;;4951760;29;20594;-72
2023/02/04 00:24:36;;;;;;;8.32;3.30;;;6.80;99.90;;;;;;4951335;28;20291;-72
2023/02/04 00:27:05;;;;;;;14.90;3.33;;;6.60;99.90;;;;;;4951523;28;20595;-72
2023/02/04 00:29:32;;;;;;;8.73;3.38;;;6.60;99.90;;;;;;4944836;29;20206;-71
2023/02/04 00:31:59;;;;;;;6.22;2.40;;;6.50;99.90;;;;;;4951787;28;20232;-72
2023/02/04 00:34:26;;;;;;;11.27;3.90;;;6.40;99.90;;;;;;4945120;29;20204;-72
2023/02/04 00:36:53;;;;;;;14.30;3.10;;;6.40;99.90;;;;;;4951750;28;20225;-72
2023/02/04 00:39:20;;;;;;;11.25;3.15;;;6.40;99.90;;;;;;4953599;28;20203;-73
2023/02/04 00:41:48;;;;;;;14.85;4.55;;;6.30;99.90;;;;;;4961256;28;20708;-74
2023/02/04 00:44:15;;;;;;;6.28;2.45;;;6.40;99.90;;;;;;4954521;28;20695;-72
2023/02/04 00:46:43;;;;;;;15.02;3.40;;;6.30;99.90;;;;;;4943990;28;20254;-73
2023/02/04 00:49:10;;;;;;;7.28;3.00;;;6.40;99.90;;;;;;4951113;28;20233;-73
2023/02/04 00:51:43;;;;;;;9.75;2.65;;;6.20;99.90;;;;;;4947836;28;20256;-74
2023/02/04 00:54:10;;;;;;;7.93;3.13;;;6.30;99.90;;;;;;4951547;28;20545;-72
2023/02/04 00:56:37;;;;;;;6.93;1.98;;;6.30;99.90;;;;;;4954276;28;20228;-73
2023/02/04 00:59:05;;;;;;;8.05;3.45;;;6.30;99.90;;;;;;4943635;28;20241;-73
2023/02/04 01:01:32;;;;;;;16.23;3.10;;;6.30;99.90;;;;;;4958938;28;20199;-73
2023/02/04 01:03:59;;;;;;;9.35;2.67;;;6.20;99.90;;;;;;4943145;28;20205;-73
2023/02/04 01:06:26;;;;;;;9.63;2.90;;;6.20;99.90;;;;;;4964802;28;20653;-70
2023/02/04 01:08:53;;;;;;;2.55;1.30;;;6.20;99.90;;;;;;4952751;28;20289;-71
2023/02/04 01:11:20;;;;;;;5.80;2.05;;;6.20;99.90;;;;;;4949666;28;20538;-72
2023/02/04 01:13:47;;;;;;;12.40;2.92;;;6.20;99.90;;;;;;4955801;28;20202;-73
2023/02/04 01:16:16;;;;;;;6.32;2.20;;;6.10;99.90;;;;;;4947966;28;20256;-74
2023/02/04 01:18:43;;;;;;;3.85;2.90;;;6.10;99.90;;;;;;4966850;28;20284;-74
2023/02/04 01:21:11;;;;;;;5.88;2.03;;;6.10;99.90;;;;;;4946504;28;20189;-73
2023/02/04 01:23:38;;;;;;;7.15;1.70;;;6.10;99.90;;;;;;4953099;28;20346;-73
2023/02/04 01:26:06;;;;;;;9.38;1.60;;;6.10;99.90;;;;;;4956188;28;20248;-75
2023/02/04 01:28:33;;;;;;;11.63;2.10;;;6.00;99.90;;;;;;4960111;28;20196;-74
2023/02/04 01:31:01;;;;;;;7.63;1.42;;;6.00;99.90;;;;;;4958613;28;20221;-75
2023/02/04 01:33:30;;;;;;;10.48;2.22;;;6.00;99.90;;;;;;4949124;28;20249;-72
2023/02/04 01:35:57;;;;;;;6.40;2.47;;;6.00;99.90;;;;;;4956146;28;20302;-75
2023/02/04 01:38:24;;;;;;;3.00;1.33;;;6.00;99.90;;;;;;4954418;28;20202;-73
2023/02/04 01:40:53;;;;;;;5.57;1.75;;;6.10;99.90;;;;;;4951274;28;20565;-72
2023/02/04 01:43:21;;;;;;;5.07;1.52;;;6.10;99.90;;;;;;4955353;28;20218;-69
2023/02/04 01:45:48;;;;;;;6.57;1.77;;;6.10;99.90;;;;;;4961237;28;20220;-73
2023/02/04 01:48:20;;;;;;;5.68;1.33;;;6.10;99.90;;;;;;4956241;28;20248;-71
2023/02/04 01:50:49;;;;;;;10.20;2.13;;;6.00;99.90;;;;;;4938056;28;20206;-71
2023/02/04 01:53:20;;;;;;;11.15;1.42;;;6.00;99.90;;;;;;4948493;28;20224;-72
2023/02/04 01:55:48;;;;;;;4.88;1.58;;;6.00;99.90;;;;;;4947654;28;20695;-70
2023/02/04 01:58:16;;;;;;;7.78;1.45;;;5.90;99.90;;;;;;4963763;28;20666;-72
2023/02/04 02:00:43;;;;;;;2.90;1.48;;;5.90;99.90;;;;;;4950788;28;20206;-72
2023/02/04 02:03:11;;;;;;;3.63;1.17;;;5.90;99.90;;;;;;4961940;28;20190;-72
2023/02/04 02:05:41;;;;;;;4.30;1.00;;;6.00;99.90;;;;;;4958697;28;20220;-73
2023/02/04 02:08:10;;;;;;;5.65;1.20;;;5.90;99.90;;;;;;4952156;28;20285;-74
2023/02/04 02:10:39;;;;;;;6.85;2.00;;;5.90;99.90;;;;;;4964497;28;20201;-73
2023/02/04 02:13:07;;;;;;;8.07;2.30;;;5.90;99.90;;;;;;4956937;28;20254;-72
2023/02/04 02:15:34;;;;;;;4.82;1.63;;;6.00;99.90;;;;;;4943331;28;20789;-74
2023/02/04 02:18:01;;;;;;;2.75;1.48;;;6.00;99.90;;;;;;4958510;28;20201;-73
2023/02/04 02:20:28;;;;;;;2.35;1.13;;;6.00;99.90;;;;;;4950933;28;20293;-71
2023/02/04 02:23:04;;;;;;;6.57;1.40;;;6.00;99.90;;;;;;4963166;28;20198;-72
2023/02/04 02:25:32;;;;;;;1.95;1.40;;;6.00;99.90;;;;;;4952597;28;20228;-75
2023/02/04 02:28:01;;;;;;;4.53;2.15;;;5.90;99.90;;;;;;4949793;28;20262;-74
2023/02/04 02:30:29;;;;;;;3.05;1.52;;;5.90;99.90;;;;;;4956961;28;20296;-71
2023/02/04 02:32:57;;;;;;;6.70;1.42;;;5.80;99.90;;;;;;4957262;28;20227;-73
2023/02/04 02:35:24;;;;;;;5.03;1.95;;;5.70;99.90;;;;;;4950858;28;20625;-72
2023/02/04 02:37:51;;;;;;;5.70;1.50;;;5.70;99.90;;;;;;4961062;28;20647;-72
2023/02/04 02:40:19;;;;;;;6.07;1.65;;;5.70;99.90;;;;;;4962744;28;20235;-71
2023/02/04 02:42:52;;;;;;;5.70;2.00;;;5.70;99.90;;;;;;4963063;28;20326;-72
2023/02/04 02:45:23;;;;;;;3.95;1.35;;;5.70;99.90;;;;;;4953654;28;20658;-73
2023/02/04 02:47:51;;;;;;;4.18;1.38;;;5.70;99.90;;;;;;4968244;28;20635;-72
2023/02/04 02:50:22;;;;;;;9.70;3.42;;;5.70;99.90;;;;;;4965644;28;20290;-73
2023/02/04 02:52:55;;;;;;;6.63;1.58;;;5.70;99.90;;;;;;4959528;28;20209;-72
2023/02/04 02:55:24;;;;;;;2.67;1.70;;;5.70;99.90;;;;;;4947376;28;20229;-71
2023/02/04 02:57:53;;;;;;;3.30;2.67;;;5.70;99.90;;;;;;4954017;28;20247;-73
2023/02/04 03:00:22;;;;;;;5.55;3.25;;;5.70;99.90;;;;;;4965117;28;20717;-74
2023/02/04 03:02:55;;;;;;;3.28;1.60;;;5.70;99.90;;;;;;4957812;28;20195;-72
2023/02/04 03:05:23;;;;;;;5.35;1.50;;;5.60;99.90;;;;;;4954240;28;20221;-72
2023/02/04 03:07:51;;;;;;;4.00;1.58;;;5.50;99.90;;;;;;4956859;28;20260;-73
2023/02/04 03:10:18;;;;;;;3.08;1.55;;;5.50;99.90;;;;;;4953667;28;20291;-71
2023/02/04 03:12:47;;;;;;;6.95;1.50;;;5.50;99.90;;;;;;4955536;28;20215;-72
2023/02/04 03:15:16;;;;;;;5.95;2.03;;;5.50;99.90;;;;;;4955986;28;20224;-70
2023/02/04 03:17:44;;;;;;;4.63;2.00;;;5.50;99.90;;;;;;4954304;28;20199;-72
2023/02/04 03:20:12;;;;;;;4.93;1.58;;;5.40;99.90;;;;;;4955568;28;20196;-72
2023/02/04 03:22:39;;;;;;;8.63;1.90;;;5.40;99.90;;;;;;4962849;28;20620;-73
2023/02/04 03:25:07;;;;;;;2.60;1.60;;;5.40;99.90;;;;;;4955232;28;20246;-71
2023/02/04 03:27:33;;;;;;;5.43;2.10;;;5.40;99.90;;;;;;4959307;28;20193;-73
2023/02/04 03:30:00;;;;;;;4.68;1.60;;;5.40;99.90;;;;;;4956167;28;20205;-73
2023/02/04 03:32:29;;;;;;;5.65;1.20;;;5.30;99.90;;;;;;4954114;28;20211;-72
2023/02/04 03:34:55;;;;;;;5.93;1.70;;;5.20;99.90;;;;;;4960417;28;20226;-71
2023/02/04 03:37:24;;;;;;;5.22;1.67;;;5.20;99.90;;;;;;4953012;28;20294;-72
2023/02/04 03:39:51;;;;;;;3.40;1.20;;;5.10;99.90;;;;;;4957422;28;20206;-73
2023/02/04 03:42:18;;;;;;;3.85;1.63;;;5.10;99.90;;;;;;4958788;28;20699;-73
2023/02/04 03:44:46;;;;;;;2.75;1.30;;;5.10;99.90;;;;;;4964710;28;20199;-71
2023/02/04 03:47:13;;;;;;;5.70;2.00;;;5.00;99.90;;;;;;4955827;28;20776;-72
2023/02/04 03:49:41;;;;;;;3.65;1.30;;;4.90;99.90;;;;;;4961479;28;20194;-70
2023/02/04 03:52:08;;;;;;;4.82;1.45;;;4.90;99.90;;;;;;4950372;28;20688;-73
2023/02/04 03:54:36;;;;;;;6.32;1.70;;;4.90;99.90;;;;;;4955536;28;20290;-70
2023/02/04 03:57:03;;;;;;;4.45;1.35;;;4.80;99.90;;;;;;4957852;28;20234;-72
2023/02/04 03:59:30;;;;;;;3.80;1.80;;;4.80;99.90;;;;;;4954239;28;20303;-72
2023/02/04 04:01:57;;;;;;;2.65;1.70;;;4.80;99.90;;;;;;4962740;28;20281;-73
2023/02/04 04:04:24;;;;;;;3.08;1.60;;;4.80;99.90;;;;;;4958370;28;20195;-73
2023/02/04 04:06:53;;;;;;;6.22;1.77;;;4.90;99.90;;;;;;4946071;28;20228;-73
2023/02/04 04:09:20;;;;;;;3.35;1.65;;;4.80;99.90;;;;;;4959447;28;20285;-72
2023/02/04 04:11:47;;;;;;;4.15;1.50;;;4.70;99.90;;;;;;4951488;28;20279;-73
2023/02/04 04:14:14;;;;;;;4.95;1.60;;;4.70;99.90;;;;;;4952405;28;20198;-72
2023/02/04 04:16:41;;;;;;;3.65;1.83;;;4.70;99.90;;;;;;4959508;28;20248;-70
2023/02/04 04:19:08;;;;;;;9.20;1.67;;;4.60;99.90;;;;;;4955750;28;20287;-71
2023/02/04 04:21:36;;;;;;;2.97;1.52;;;4.60;99.90;;;;;;4961883;28;20209;-73
2023/02/04 04:24:04;;;;;;;3.45;1.92;;;4.50;99.90;;;;;;4958579;28;20195;-74
2023/02/04 04:26:31;;;;;;;7.68;1.98;;;4.50;99.90;;;;;;4960650;28;20228;-73
2023/02/04 04:28:58;;;;;;;5.72;1.70;;;4.50;99.90;;;;;;4941987;28;20195;-73
2023/02/04 04:31:26;;;;;;;6.28;1.73;;;4.50;99.90;;;;;;4954590;28;20293;-73
2023/02/04 04:33:53;;;;;;;4.90;2.00;;;4.50;99.90;;;;;;4964187;28;20313;-72
2023/02/04 04:36:21;;;;;;;4.60;1.63;;;4.50;99.90;;;;;;4964463;28;20414;-73
2023/02/04 04:38:48;;;;;;;7.28;2.35;;;4.50;99.90;;;;;;4955793;28;20218;-72
2023/02/04 04:41:16;;;;;;;9.55;3.88;;;4.40;99.90;;;;;;4954813;28;20229;-72
2023/02/04 04:43:43;;;;;;;4.18;2.20;;;4.30;99.90;;;;;;4958081;28;20212;-71
2023/02/04 04:46:12;;;;;;;3.55;1.77;;;4.30;99.90;;;;;;4953246;28;20304;-72
2023/02/04 04:48:39;;;;;;;4.43;2.00;;;4.30;99.90;;;;;;4964413;28;20237;-73
2023/02/04 04:51:06;;;;;;;13.88;4.15;;;4.30;99.90;;;;;;4957421;28;20236;-72
2023/02/04 04:53:33;;;;;;;4.72;1.70;;;4.20;99.90;;;;;;4964115;28;20254;-74
2023/02/04 04:56:00;;;;;;;6.40;1.90;;;4.20;99.90;;;;;;4963348;28;20297;-72
2023/02/04 04:58:28;;;;;;;5.65;1.88;;;4.20;99.90;;;;;;4955970;28;20242;-73
2023/02/04 05:00:55;;;;;;;1.90;1.70;;;4.30;99.90;;;;;;4958125;28;20206;-72
2023/02/04 05:03:22;;;;;;;3.05;1.85;;;4.30;99.90;;;;;;4957040;28;20282;-72
2023/02/04 05:05:49;;;;;;;3.47;2.70;;;4.30;99.90;;;;;;4956361;28;20757;-73
2023/02/04 05:08:17;;;;;;;2.78;1.80;;;4.40;99.90;;;;;;4954229;29;20294;-72
2023/02/04 05:10:45;;;;;;;2.47;1.92;;;4.40;99.90;;;;;;4953206;29;20203;-73
2023/02/04 05:13:11;;;;;;;4.10;3.40;;;4.40;99.90;;;;;;4953274;29;20310;-73
2023/02/04 05:15:41;;;;;;;3.58;1.88;;;4.40;99.90;;;;;;4950154;28;20221;-71
2023/02/04 05:18:08;;;;;;;5.35;1.95;;;4.40;99.90;;;;;;4953966;28;20202;-72
2023/02/04 05:20:35;;;;;;;3.03;2.30;;;4.40;99.90;;;;;;4951164;28;20200;-71
2023/02/04 05:23:02;;;;;;;2.65;2.00;;;4.40;99.90;;;;;;4954137;28;20203;-72
2023/02/04 05:25:32;;;;;;;4.88;1.65;;;4.40;99.90;;;;;;4954212;29;20284;-72
2023/02/04 05:27:59;;;;;;;5.50;2.42;;;4.40;99.90;;;;;;4954243;29;20199;-72
2023/02/04 05:30:26;;;;;;;6.15;1.98;;;4.40;99.90;;;;;;4950245;28;20203;-73
2023/02/04 05:32:54;;;;;;;7.25;2.80;;;4.40;99.90;;;;;;4959336;28;20243;-72
2023/02/04 05:35:21;;;;;;;10.35;2.70;;;4.40;99.90;;;;;;4952071;28;20325;-73
2023/02/04 05:37:50;;;;;;;5.97;2.25;;;4.40;99.90;;;;;;4959924;28;20661;-72
2023/02/04 05:40:17;;;;;;;3.17;2.15;;;4.50;99.90;;;;;;4958280;28;20203;-71
2023/02/04 05:42:44;;;;;;;2.63;2.00;;;4.50;99.90;;;;;;4964273;28;20199;-72
2023/02/04 05:45:15;;;;;;;3.75;1.98;;;4.50;99.90;;;;;;4955456;28;20235;-73
2023/02/04 05:47:42;;;;;;;4.18;2.63;;;4.50;99.90;;;;;;4954269;28;20194;-73
2023/02/04 05:50:12;;;;;;;3.70;1.90;;;4.50;99.90;;;;;;4956359;28;20286;-71
2023/02/04 05:52:39;;;;;;;3.25;3.00;;;4.50;99.90;;;;;;4962871;28;20222;-73
2023/02/04 05:55:07;;;;;;;3.92;2.15;;;4.50;99.90;;;;;;4952591;28;20258;-71
2023/02/04 05:57:34;;;;;;;6.57;2.50;;;4.50;99.90;;;;;;4949521;28;20215;-71
2023/02/04 06:00:02;;;;;;;7.80;3.20;;;4.50;99.90;;;;;;4951675;28;20283;-72
2023/02/04 06:02:29;;;;;;;1.90;1.70;;;4.50;99.90;;;;;;4950041;28;20208;-74
2023/02/04 06:04:56;;;;;;;4.53;2.10;;;4.50;99.90;;;;;;4956379;28;20195;-72
2023/02/04 06:07:24;;;;;;;5.60;2.17;;;4.60;99.90;;;;;;4944628;28;20235;-72
2023/02/04 06:09:52;;;;;;;3.63;2.20;;;4.50;99.90;;;;;;4964709;28;20236;-72
2023/02/04 06:12:19;;;;;;;4.93;2.10;;;4.60;99.90;;;;;;4952847;28;20236;-70
2023/02/04 06:14:46;;;;;;;5.40;2.25;;;4.60;99.90;;;;;;4961077;28;20282;-72
2023/02/04 06:17:13;;;;;;;4.97;2.05;;;4.60;99.90;;;;;;4957110;28;20606;-73
2023/02/04 06:19:41;;;;;;;4.25;2.70;;;4.50;99.90;;;;;;4948960;28;20208;-74
2023/02/04 06:22:08;;;;;;;5.30;2.88;;;4.50;99.90;;;;;;4960900;28;20290;-72
2023/02/04 06:24:36;;;;;;;7.50;2.60;;;4.50;99.90;;;;;;4946087;28;20238;-71
2023/02/04 06:27:03;;;;;;;4.43;2.42;;;4.50;99.90;;;;;;4958474;28;20198;-70
2023/02/04 06:29:31;;;;;;;7.32;2.70;;;4.50;99.90;;;;;;4966608;28;20301;-71
2023/02/04 06:31:58;;;;;;;3.10;2.75;;;4.50;99.90;;;;;;4960172;28;20689;-72
2023/02/04 06:34:25;;;;;;;8.90;2.72;;;4.50;99.90;;;;;;4963525;28;20681;-72
2023/02/04 06:36:52;;;;;;;4.32;3.20;;;4.50;99.90;;;;;;4959594;28;20223;-72
2023/02/04 06:39:19;;;;;;;6.00;3.08;;;4.50;99.90;;;;;;4954189;28;20377;-72
2023/02/04 06:41:48;;;;;;;4.30;3.90;;;4.40;99.90;;;;;;4955114;28;20562;-71
2023/02/04 06:44:15;;;;;;;5.13;3.28;;;4.30;99.90;;;;;;4954039;28;20207;-74
2023/02/04 06:46:42;;;;;;;4.80;3.97;;;4.30;99.90;;;;;;4950364;28;20318;-73
2023/02/04 06:49:09;;;;;;;6.95;3.53;;;4.20;99.90;;;;;;4964742;28;20226;-73
2023/02/04 06:51:36;;;;;;;5.90;4.28;;;4.10;99.90;;;;;;4949470;28;20235;-74
2023/02/04 06:54:02;;;;;;;5.68;3.40;;;4.00;99.90;;;;;;4948380;28;20226;-73
2023/02/04 06:56:29;;;;;;;5.05;3.97;;;4.00;99.90;;;;;;4959121;28;20230;-73
2023/02/04 06:58:58;;;;;;;5.35;4.47;;;3.90;99.90;;;;;;4948804;28;20196;-74
2023/02/04 07:01:26;;;;;;;5.47;4.32;;;3.90;99.90;;;;;;4950004;28;20286;-72
2023/02/04 07:03:53;;;;;;;5.00;3.85;;;3.90;99.90;;;;;;4957606;28;20665;-72
2023/02/04 07:06:21;;;;;;;13.00;5.32;;;3.80;99.90;;;;;;4939682;28;20223;-72
2023/02/04 07:08:49;;;;;;;5.63;3.80;;;4.00;99.90;;;;;;4954559;28;20289;-72
2023/02/04 07:11:16;;;;;;;7.57;5.15;;;4.00;99.90;;;;;;4954545;28;20553;-72
2023/02/04 07:13:42;;;;;;;9.40;5.28;;;3.80;99.90;;;;;;4957349;28;20218;-72
2023/02/04 07:16:11;;;;;;;9.32;4.40;;;3.80;99.90;;;;;;4951712;28;20226;-71
2023/02/04 07:18:38;;;;;;;6.53;4.55;;;3.90;99.90;;;;;;4946051;28;20286;-72
2023/02/04 07:21:05;;;;;;;7.13;4.97;;;3.90;99.90;;;;;;4951196;28;20202;-74
2023/02/04 07:23:32;;;;;;;6.10;4.07;;;4.00;99.90;;;;;;4958573;28;20191;-71
2023/02/04 07:25:59;;;;;;;6.28;4.15;;;4.00;99.90;;;;;;4947826;28;20255;-71
2023/02/04 07:28:26;;;;;;;6.30;4.18;;;4.10;99.90;;;;;;4955216;28;20285;-71
2023/02/04 07:31:00;;;;;;;9.30;5.63;;;4.10;99.90;;;;;;4942393;28;20203;-71
2023/02/04 07:33:29;;;;;;;6.68;5.05;;;4.10;99.90;;;;;;4957191;28;20238;-72
2023/02/04 07:35:57;;;;;;;5.35;4.10;;;4.20;99.90;;;;;;4943390;28;20310;-74
2023/02/04 07:38:24;;;;;;;8.23;4.95;;;4.20;99.90;;;;;;4949418;28;20211;-74
2023/02/04 07:40:54;;;;;;;6.28;4.93;;;4.10;99.90;;;;;;4955514;28;20294;-72
2023/02/04 07:43:22;;;;;;;6.45;5.10;;;4.10;99.90;;;;;;4951566;28;20203;-74
2023/02/04 07:45:48;;;;;;;8.45;4.97;;;4.20;99.90;;;;;;4957350;28;20599;-72
2023/02/04 07:48:17;;;;;;;9.38;5.80;;;4.10;99.90;;;;;;4951418;28;20297;-71
2023/02/04 07:50:45;;;;;;;5.88;4.90;;;4.20;99.90;;;;;;4947545;28;20205;-71
2023/02/04 07:53:13;;;;;;;6.25;4.50;;;4.30;99.90;;;;;;4959413;28;20603;-71
2023/02/04 07:55:40;;;;;;;8.05;4.80;;;4.70;99.90;;;;;;4965498;28;20218;-71
2023/02/04 07:58:11;;;;;;;7.22;4.93;;;4.90;99.90;;;;;;4954585;28;20230;-75
2023/02/04 08:00:38;;;;;;;12.60;5.70;;;5.10;99.90;;;;;;4945234;28;20204;-73
2023/02/04 08:03:05;;;;;;;7.47;5.18;;;5.30;99.90;;;;;;4958585;28;20206;-73
2023/02/04 08:05:32;;;;;;;10.02;7.22;;;5.70;99.90;;;;;;4961068;28;20581;-72
2023/02/04 08:08:01;;;;;;;9.00;4.45;;;6.10;99.90;;;;;;4955548;28;20209;-72
2023/02/04 08:10:28;;;;;;;7.38;4.00;;;6.90;99.90;;;;;;4957940;28;20616;-74
2023/02/04 08:12:55;;;;;;;6.10;5.18;;;7.70;99.90;;;;;;4958919;28;20344;-74
2023/02/04 08:15:22;;;;;;;4.85;3.63;;;8.00;99.90;;;;;;4954322;28;20237;-71
2023/02/04 08:17:49;;;;;;;6.60;4.70;;;8.50;99.90;;;;;;4944635;29;20282;-71
2023/02/04 08:20:17;;;;;;;7.90;4.50;;;8.60;99.90;;;;;;4949696;28;20290;-74
2023/02/04 08:22:44;;;;;;;6.13;5.47;;;8.50;99.90;;;;;;4959005;28;20280;-70
2023/02/04 08:25:12;;;;;;;8.25;5.03;;;9.00;99.90;;;;;;4945330;29;20322;-73
2023/02/04 08:27:39;;;;;;;6.43;4.18;;;9.20;99.90;;;;;;4957378;28;20274;-75
2023/02/04 08:30:07;;;;;;;5.75;4.40;;;9.40;99.90;;;;;;4963938;28;20206;-73
2023/02/04 08:32:34;;;;;;;5.65;4.82;;;10.40;99.90;;;;;;4954205;28;20210;-73
2023/02/04 08:35:01;;;;;;;5.32;4.22;;;11.60;99.90;;;;;;4951221;28;20222;-75
2023/02/04 08:37:29;;;;;;;7.00;4.57;;;12.80;99.90;;;;;;4951757;28;20489;-76
2023/02/04 08:39:56;;;;;;;5.70;4.07;;;14.40;96.60;;;;;;4951311;28;20299;-75
2023/02/04 08:42:25;;;;;;;5.03;3.50;;;15.70;93.10;;;;;;4952921;28;20969;-74
2023/02/04 08:44:52;;;;;;;5.53;3.83;;;16.70;90.00;;;;;;4951486;28;20439;-73
2023/02/04 08:47:19;;;;;;;6.00;3.60;;;17.10;87.40;;;;;;4951005;28;20798;-74
2023/02/04 08:49:46;;;;;;;3.97;3.57;;;17.40;85.20;;;;;;4945302;28;20529;-75
2023/02/04 08:52:13;;;;;;;3.70;2.83;;;17.90;81.80;;;;;;4951094;28;20479;-78
2023/02/04 08:54:39;;;;;;;8.23;3.63;;;18.40;80.70;;;;;;4954256;28;20521;-79
2023/02/04 08:57:06;;;;;;;7.13;3.80;;;18.00;80.60;;;;;;4950812;28;20550;-80
2023/02/04 08:59:35;;;;;;;6.50;4.50;;;17.00;81.10;;;;;;4950385;28;20481;-79
2023/02/04 09:02:02;;;;;;;6.50;3.97;;;15.70;84.20;;;;;;4958840;28;20547;-76
2023/02/04 09:04:29;;;;;;;6.97;4.63;;;14.30;86.70;;;;;;4957562;28;20205;-76
2023/02/04 09:06:56;;;;;;;4.35;3.40;;;13.40;89.10;;;;;;4948797;28;20239;-77
2023/02/04 09:09:23;;;;;;;7.72;5.25;;;12.70;90.90;;;;;;4952186;28;20206;-76
2023/02/04 09:11:50;;;;;;;4.60;3.38;;;12.90;91.10;;;;;;4952519;28;20219;-77
2023/02/04 09:14:17;;;;;;;5.88;3.85;;;12.70;91.10;;;;;;4951696;28;20215;-71
2023/02/04 09:16:47;;;;;;;5.85;4.20;;;12.30;90.90;;;;;;4955636;28;20249;-76
2023/02/04 09:19:15;;;;;;;8.73;4.22;;;11.70;91.80;;;;;;4953666;28;20199;-78
2023/02/04 09:21:42;;;;;;;7.25;5.45;;;11.00;92.90;;;;;;4950022;28;20207;-80
2023/02/04 09:24:09;;;;;;;8.45;3.95;;;10.50;94.60;;;;;;4945586;28;20219;-78
2023/02/04 09:26:37;;;;;;;5.28;3.85;;;10.00;96.00;;;;;;4959996;28;20269;-76
2023/02/04 09:29:04;;;;;;;7.28;5.20;;;9.70;96.90;;;;;;4966442;28;20289;-77
2023/02/04 09:31:31;;;;;;;6.65;3.70;;;9.70;97.60;;;;;;4957188;28;20565;-77
2023/02/04 09:33:59;;;;;;;5.32;3.63;;;9.60;97.10;;;;;;4965743;28;20299;-78
2023/02/04 09:36:29;;;;;;;7.05;3.63;;;9.40;97.40;;;;;;4963246;28;20259;-76
2023/02/04 09:38:56;;;;;;;5.45;3.85;;;9.60;97.20;;;;;;4953244;28;20278;-77
2023/02/04 09:41:23;;;;;;;5.63;3.80;;;9.40;97.40;;;;;;4955168;28;20227;-77
2023/02/04 09:43:50;;;;;;;4.75;3.67;;;9.40;97.30;;;;;;4960556;28;20249;-76
2023/02/04 09:46:21;;;;;;;5.95;4.05;;;9.20;97.50;;;;;;4966248;28;20226;-77
2023/02/04 09:48:49;;;;;;;4.57;3.30;;;8.90;98.40;;;;;;4961017;28;20407;-76
2023/02/04 09:51:20;;;;;;;4.60;3.80;;;8.70;99.10;;;;;;4958906;28;20211;-74
2023/02/04 09:53:48;;;;;;;7.40;4.47;;;8.80;99.20;;;;;;4959186;28;20313;-72
2023/02/04 09:56:16;;;;;;;7.43;5.60;;;9.20;99.00;;;;;;4958367;28;20229;-74
2023/02/04 09:58:43;;;;;;;6.35;4.25;;;9.20;98.20;;;;;;4957822;28;20272;-74
2023/02/04 10:01:15;;;;;;;6.95;4.97;;;9.00;98.80;;;;;;4958110;28;20191;-74
2023/02/04 10:03:46;;;;;;;3.90;3.40;;;9.20;98.20;;;;;;4959597;28;20219;-74
2023/02/04 10:06:15;;;;;;;6.55;3.70;;;9.70;98.10;;;;;;4960312;28;20292;-75
2023/02/04 10:08:45;;;;;;;3.50;2.92;;;10.70;95.50;;;;;;4958226;28;20212;-77
2023/02/04 10:11:14;;;;;;;5.55;3.78;;;11.50;93.60;;;;;;4947827;28;20230;-74
2023/02/04 10:13:45;;;;;;;4.32;2.65;;;12.50;92.30;;;;;;4956685;28;20255;-75
2023/02/04 10:16:15;;;;;;;6.60;3.50;;;13.50;90.50;;;;;;4957431;28;20318;-73
2023/02/04 10:18:42;;;;;;;4.20;2.73;;;14.60;88.00;;;;;;4955729;28;20461;-74
2023/02/04 10:21:17;;;;;;;3.60;3.10;;;15.70;85.10;;;;;;4951384;28;20474;-76
2023/02/04 10:23:49;;;;;;;4.53;3.20;;;16.30;81.50;;;;;;4958644;28;20470;-74
2023/02/04 10:26:16;;;;;;;4.67;3.27;;;16.60;79.40;;;;;;4962618;28;20473;-76
2023/02/04 10:28:44;;;;;;;5.90;3.73;;;16.30;78.30;;;;;;4956459;28;20545;-74
2023/02/04 10:31:30;;;;;;;5.33;3.43;;;16.10;79.50;;;;;;4960720;28;20499;-73
2023/02/04 10:34:09;;;;;;;4.20;2.87;;;16.10;78.60;;;;;;4955674;28;20573;-71
2023/02/04 10:36:36;;;;;;;3.70;2.50;;;15.90;76.80;;;;;;4961973;28;20961;-74
2023/02/04 10:39:07;;;;;;;2.00;1.80;;;15.40;77.60;;;;;;4951655;28;20442;-73
2023/02/04 10:41:37;;;;;;;2.65;2.17;;;14.90;77.40;;;;;;4949451;28;20448;-75
2023/02/04 10:44:06;;;;;;;2.97;2.22;;;14.10;78.60;;;;;;4960239;28;20201;-76
2023/02/04 10:46:34;;;;;;;3.78;2.17;;;14.00;79.30;;;;;;4953785;28;20250;-81
2023/02/04 10:49:03;;;;;;;3.42;2.50;;;13.70;80.20;;;;;;4952369;28;20227;-74
2023/02/04 10:51:30;;;;;;;3.00;2.63;;;14.00;80.60;;;;;;4949325;28;20201;-75
2023/02/04 10:56:43;;;;;;;4.78;2.92;;;12.90;81.80;;;;;;4951463;28;20320;-80
2023/02/04 10:59:25;;;;;;;4.40;2.80;;;12.20;84.60;;;;;;4945096;28;20198;-82
2023/02/04 11:01:52;;;;;;;3.30;2.80;;;11.60;85.70;;;;;;4951849;28;20538;-75
2023/02/04 11:04:21;;;;;;;4.07;2.75;;;11.10;87.10;;;;;;4957606;28;20296;-75
2023/02/04 11:06:48;;;;;;;3.53;2.40;;;10.50;88.90;;;;;;4970354;28;20298;-73
2023/02/04 11:09:15;;;;;;;3.60;2.42;;;10.10;90.10;;;;;;4950113;28;20225;-73
2023/02/04 11:12:21;;;;;;;3.10;2.50;;;9.50;91.30;;;;;;4963655;28;20287;-72
2023/02/04 11:14:55;;;;;;;3.40;2.55;;;9.40;91.80;;;;;;4941447;28;20246;-74
2023/02/04 11:17:28;;;;;;;2.75;1.90;;;9.20;92.30;;;;;;4959528;28;20590;-72
2023/02/04 11:19:55;;;;;;;4.35;1.92;;;8.80;93.10;;;;;;4947211;29;20287;-73
2023/02/04 11:22:25;;;;;;;2.33;1.77;;;8.80;93.20;;;;;;4950849;28;20593;-74
2023/02/04 11:24:52;;;;;;;2.30;1.70;;;8.90;93.10;;;;;;4951707;29;20222;-75
2023/02/04 11:27:26;;;;;;;2.20;1.70;;;8.80;93.00;;;;;;4959278;28;20231;-75
2023/02/04 11:30:05;;;;;;;1.50;1.27;;;8.80;92.80;;;;;;4942181;28;20217;-78
2023/02/04 11:32:36;;;;;;;3.47;2.60;;;8.90;93.00;;;;;;4942916;28;20198;-72
2023/02/04 11:35:27;;;;;;;3.55;1.90;;;8.70;92.70;;;;;;4946167;28;20330;-74
2023/02/04 11:37:55;;;;;;;3.75;2.13;;;8.70;93.00;;;;;;4953092;28;20265;-75
2023/02/04 11:40:31;;;;;;;3.33;1.80;;;8.70;93.30;;;;;;4951629;28;20238;-77
2023/02/04 11:43:09;;;;;;;1.80;1.48;;;8.80;93.50;;;;;;4950999;28;20301;-76
2023/02/04 11:45:38;;;;;;;2.72;1.75;;;8.70;92.90;;;;;;4943543;28;20680;-74
2023/02/04 11:48:14;;;;;;;5.20;2.10;;;8.60;93.00;;;;;;4942173;28;20234;-75
2023/02/04 11:50:43;;;;;;;2.97;2.67;;;8.50;93.20;;;;;;4937142;28;20278;-76
2023/02/04 11:53:12;;;;;;;3.15;1.58;;;8.50;93.60;;;;;;4945447;28;20556;-75
2023/02/04 11:55:45;;;;;;;3.00;1.73;;;8.60;93.80;;;;;;4942581;28;20302;-75
2023/02/04 11:58:15;;;;;;;3.45;2.30;;;8.50;93.90;;;;;;4946333;28;20294;-76
2023/02/04 12:00:42;;;;;;;5.88;2.97;;;8.40;94.20;;;;;;4936003;29;20207;-76
2023/02/04 12:03:24;;;;;;;3.30;1.83;;;8.30;94.10;;;;;;4956164;28;20290;-75
2023/02/04 12:05:53;;;;;;;4.20;2.85;;;8.20;94.40;;;;;;4940307;28;20305;-73
2023/02/04 12:08:33;;;;;;;2.67;2.13;;;8.20;94.70;;;;;;4962870;28;20206;-75
2023/02/04 12:11:04;;;;;;;11.75;4.85;;;8.30;95.60;;;;;;4945838;28;20283;-74
2023/02/04 12:13:33;;;;;;;2.53;2.13;;;8.30;95.70;;;;;;4960508;28;20241;-73
2023/02/04 12:16:02;;;;;;;3.08;2.38;;;8.40;95.30;;;;;;4957269;28;20224;-75
2023/02/04 12:18:29;;;;;;;7.65;2.65;;;8.40;95.10;;;;;;4956063;28;20296;-75
2023/02/04 12:20:56;;;;;;;3.00;2.40;;;8.30;95.20;;;;;;4954662;28;20500;-74
2023/02/04 12:23:24;;;;;;;3.85;2.45;;;8.30;95.20;;;;;;4956964;28;20559;-75
2023/02/04 12:25:51;;;;;;;6.82;2.40;;;8.20;95.10;;;;;;4953784;28;20245;-76
2023/02/04 12:28:18;;;;;;;4.60;2.58;;;8.30;95.20;;;;;;4942635;28;20721;-76
2023/02/04 12:30:47;;;;;;;4.13;2.65;;;8.20;94.80;;;;;;4957497;28;20206;-74
2023/02/04 12:33:14;;;;;;;1.92;1.70;;;8.20;95.10;;;;;;4945682;28;20340;-75
2023/02/04 12:35:42;;;;;;;2.78;2.03;;;8.30;95.10;;;;;;4960404;28;20640;-75
2023/02/04 12:38:09;;;;;;;6.30;2.10;;;8.50;94.80;;;;;;4953178;28;20541;-74
2023/02/04 12:40:36;;;;;;;2.45;1.90;;;8.40;94.80;;;;;;4946391;28;20276;-74
2023/02/04 12:43:03;;;;;;;6.50;2.90;;;8.40;95.00;;;;;;4957070;28;20240;-74
2023/02/04 12:45:30;;;;;;;3.33;2.90;;;8.30;94.90;;;;;;4950460;28;20214;-76
2023/02/04 12:47:58;;;;;;;4.40;1.95;;;8.30;95.10;;;;;;4965026;28;20670;-76
2023/02/04 12:50:26;;;;;;;3.42;2.50;;;8.40;95.10;;;;;;4956276;28;20289;-75
2023/02/04 12:52:55;;;;;;;2.22;1.90;;;8.40;95.10;;;;;;4957497;28;20251;-74
2023/02/04 12:55:23;;;;;;;2.42;2.20;;;8.30;95.10;;;;;;4955929;28;20668;-76
2023/02/04 12:57:50;;;;;;;3.28;2.60;;;8.10;95.30;;;;;;4948390;28;20192;-74
2023/02/04 13:00:18;;;;;;;6.70;2.88;;;8.10;95.40;;;;;;4947474;28;20203;-75
2023/02/04 13:02:46;;;;;;;4.10;2.85;;;8.10;95.50;;;;;;4967759;28;20201;-76